createdAt,value
2018-05-10T00:00:32.278Z,20.88
2018-05-10T00:01:32.270Z,20.93
2018-05-10T00:02:32.257Z,20.90
2018-05-10T00:03:32.243Z,20.93
2018-05-10T00:04:32.238Z,21.00
2018-05-10T00:05:32.221Z,21.07
2018-05-10T00:06:32.219Z,21.10
2018-05-10T00:07:32.204Z,21.14
2018-05-10T00:08:32.190Z,21.01
2018-05-10T00:09:32.179Z,21.19
2018-05-10T00:10:32.172Z,21.05
2018-05-10T00:11:32.159Z,21.07
2018-05-10T00:12:32.151Z,21.03
2018-05-10T00:13:32.138Z,21.04
2018-05-10T00:14:32.131Z,20.97
2018-05-10T00:15:32.119Z,21.00
2018-05-10T00:16:32.109Z,20.80
2018-05-10T00:17:32.099Z,20.92
2018-05-10T00:18:32.085Z,20.71
2018-05-10T00:19:32.075Z,20.68
2018-05-10T00:20:32.070Z,20.67
2018-05-10T00:21:32.055Z,20.67
2018-05-10T00:22:32.044Z,20.61
2018-05-10T00:23:32.038Z,20.58
2018-05-10T00:24:32.027Z,20.56
2018-05-10T00:25:32.016Z,20.56
2018-05-10T00:26:32.005Z,20.56
2018-05-10T00:27:32.008Z,20.65
2018-05-10T00:28:31.979Z,20.60
2018-05-10T00:29:31.977Z,20.64
2018-05-10T00:30:31.962Z,20.70
2018-05-10T00:31:31.949Z,20.61
2018-05-10T00:32:31.938Z,20.67
2018-05-10T00:33:31.929Z,20.65
2018-05-10T00:34:31.920Z,20.60
2018-05-10T00:35:31.908Z,20.53
2018-05-10T00:36:31.898Z,20.48
2018-05-10T00:37:31.892Z,20.64
2018-05-10T00:38:31.876Z,20.60
2018-05-10T00:39:31.867Z,20.63
2018-05-10T00:40:31.859Z,20.53
2018-05-10T00:41:31.844Z,20.42
2018-05-10T00:42:31.836Z,20.11
2018-05-10T00:43:31.830Z,20.07
2018-05-10T00:44:31.815Z,19.87
2018-05-10T00:45:31.814Z,19.90
2018-05-10T00:46:31.792Z,19.86
2018-05-10T00:47:31.784Z,19.87
2018-05-10T00:48:31.775Z,19.90
2018-05-10T00:49:31.759Z,19.94
2018-05-10T00:50:31.754Z,19.93
2018-05-10T00:51:31.741Z,19.86
2018-05-10T00:52:31.731Z,19.78
2018-05-10T00:53:31.721Z,19.79
2018-05-10T00:54:31.712Z,19.92
2018-05-10T00:55:31.779Z,19.93
2018-05-10T00:56:31.690Z,20.05
2018-05-10T00:57:31.727Z,20.08
2018-05-10T00:58:31.679Z,20.09
2018-05-10T00:59:31.665Z,20.11
2018-05-10T01:00:31.641Z,20.18
2018-05-10T01:01:31.645Z,20.22
2018-05-10T01:02:31.624Z,20.18
2018-05-10T01:03:31.612Z,20.12
2018-05-10T01:04:31.599Z,20.18
2018-05-10T01:05:31.590Z,20.12
2018-05-10T01:06:31.579Z,20.15
2018-05-10T01:07:31.571Z,20.17
2018-05-10T01:08:31.575Z,20.15
2018-05-10T01:09:31.557Z,20.09
2018-05-10T01:10:31.535Z,20.19
2018-05-10T01:11:31.529Z,20.12
2018-05-10T01:12:31.513Z,20.07
2018-05-10T01:13:31.501Z,20.11
2018-05-10T01:14:31.491Z,20.08
2018-05-10T01:15:31.497Z,20.11
2018-05-10T01:16:31.468Z,20.17
2018-05-10T01:17:31.461Z,20.14
2018-05-10T01:18:31.450Z,20.09
2018-05-10T01:19:31.443Z,20.07
2018-05-10T01:20:31.446Z,20.02
2018-05-10T01:21:31.420Z,19.97
2018-05-10T01:22:31.403Z,19.92
2018-05-10T01:23:31.472Z,19.94
2018-05-10T01:24:31.383Z,19.89
2018-05-10T01:25:31.479Z,19.93
2018-05-10T01:26:31.364Z,19.87
2018-05-10T01:27:31.452Z,19.84
2018-05-10T01:28:31.337Z,19.90
2018-05-10T01:29:31.330Z,19.77
2018-05-10T01:30:31.322Z,19.86
2018-05-10T01:31:31.336Z,19.86
2018-05-10T01:32:31.294Z,19.78
2018-05-10T01:33:31.298Z,19.87
2018-05-10T01:34:31.275Z,19.79
2018-05-10T01:35:31.313Z,19.74
2018-05-10T01:36:31.249Z,19.71
2018-05-10T01:37:31.240Z,19.77
2018-05-10T01:38:31.231Z,19.79
2018-05-10T01:39:31.220Z,19.75
2018-05-10T01:40:31.209Z,19.72
2018-05-10T01:41:31.247Z,19.53
2018-05-10T01:42:31.186Z,19.44
2018-05-10T01:43:31.224Z,19.41
2018-05-10T01:44:31.168Z,19.42
2018-05-10T01:45:31.158Z,19.52
2018-05-10T01:46:31.145Z,19.41
2018-05-10T01:47:31.131Z,19.49
2018-05-10T01:48:31.121Z,19.39
2018-05-10T01:49:31.112Z,19.49
2018-05-10T01:50:31.107Z,19.42
2018-05-10T01:51:31.091Z,19.52
2018-05-10T01:52:31.075Z,19.54
2018-05-10T01:53:31.065Z,19.42
2018-05-10T01:54:31.052Z,19.52
2018-05-10T01:55:31.045Z,19.54
2018-05-10T01:56:31.031Z,19.59
2018-05-10T01:57:31.020Z,19.52
2018-05-10T01:58:31.012Z,19.47
2018-05-10T01:59:30.996Z,19.53
2018-05-10T02:00:30.984Z,19.47
2018-05-10T02:01:30.981Z,19.50
2018-05-10T02:02:30.967Z,19.41
2018-05-10T02:03:31.009Z,19.45
2018-05-10T02:04:30.940Z,19.42
2018-05-10T02:05:30.928Z,19.56
2018-05-10T02:06:30.929Z,19.45
2018-05-10T02:07:30.910Z,19.54
2018-05-10T02:08:30.903Z,19.52
2018-05-10T02:09:30.886Z,19.52
2018-05-10T02:10:30.875Z,19.45
2018-05-10T02:11:30.870Z,19.41
2018-05-10T02:12:30.859Z,19.49
2018-05-10T02:13:30.839Z,19.42
2018-05-10T02:14:30.828Z,19.39
2018-05-10T02:15:30.817Z,19.39
2018-05-10T02:16:30.811Z,19.39
2018-05-10T02:17:30.799Z,19.38
2018-05-10T02:18:30.783Z,19.41
2018-05-10T02:19:30.773Z,19.39
2018-05-10T02:20:30.773Z,19.44
2018-05-10T02:21:30.748Z,19.35
2018-05-10T02:22:30.747Z,19.31
2018-05-10T02:23:30.729Z,19.31
2018-05-10T02:24:30.719Z,19.30
2018-05-10T02:25:30.710Z,19.17
2018-05-10T02:26:30.699Z,19.15
2018-05-10T02:27:30.687Z,18.94
2018-05-10T02:28:30.671Z,18.93
2018-05-10T02:29:30.662Z,18.78
2018-05-10T02:30:30.652Z,18.75
2018-05-10T02:31:30.641Z,18.58
2018-05-10T02:32:30.631Z,18.66
2018-05-10T02:33:30.616Z,18.63
2018-05-10T02:34:30.614Z,18.68
2018-05-10T02:35:30.606Z,18.74
2018-05-10T02:36:30.783Z,18.79
2018-05-10T02:37:30.571Z,18.66
2018-05-10T02:38:30.562Z,18.71
2018-05-10T02:39:30.550Z,18.74
2018-05-10T02:40:30.536Z,18.68
2018-05-10T02:41:30.530Z,18.45
2018-05-10T02:42:30.523Z,18.31
2018-05-10T02:43:30.510Z,17.90
2018-05-10T02:44:30.490Z,17.81
2018-05-10T02:45:30.481Z,17.88
2018-05-10T02:46:30.476Z,17.90
2018-05-10T02:47:30.456Z,18.03
2018-05-10T02:48:30.444Z,18.15
2018-05-10T02:49:30.440Z,18.24
2018-05-10T02:50:30.431Z,18.28
2018-05-10T02:51:30.415Z,18.51
2018-05-10T02:52:30.399Z,18.57
2018-05-10T02:53:30.392Z,18.54
2018-05-10T02:54:30.378Z,18.58
2018-05-10T02:55:30.369Z,18.66
2018-05-10T02:56:30.351Z,18.68
2018-05-10T02:57:30.341Z,18.75
2018-05-10T02:58:30.331Z,18.75
2018-05-10T02:59:30.330Z,18.74
2018-05-10T03:00:30.309Z,18.75
2018-05-10T03:01:30.299Z,18.79
2018-05-10T03:02:30.295Z,18.71
2018-05-10T03:03:30.270Z,18.71
2018-05-10T03:04:30.269Z,18.66
2018-05-10T03:05:30.250Z,18.71
2018-05-10T03:06:30.241Z,18.74
2018-05-10T03:07:30.231Z,18.75
2018-05-10T03:08:30.210Z,18.78
2018-05-10T03:09:30.202Z,18.70
2018-05-10T03:10:30.190Z,18.67
2018-05-10T03:11:30.178Z,18.61
2018-05-10T03:12:30.204Z,18.70
2018-05-10T03:13:30.218Z,18.68
2018-05-10T03:14:30.139Z,18.66
2018-05-10T03:15:30.129Z,18.71
2018-05-10T03:16:30.120Z,18.63
2018-05-10T03:17:30.109Z,18.66
2018-05-10T03:18:30.095Z,18.56
2018-05-10T03:19:30.090Z,18.52
2018-05-10T03:20:30.070Z,18.43
2018-05-10T03:21:30.059Z,18.46
2018-05-10T03:22:30.049Z,18.42
2018-05-10T03:23:30.040Z,18.31
2018-05-10T03:24:30.022Z,18.30
2018-05-10T03:25:30.019Z,18.30
2018-05-10T03:26:30.003Z,18.27
2018-05-10T03:27:29.992Z,18.26
2018-05-10T03:28:29.977Z,18.27
2018-05-10T03:29:30.120Z,18.20
2018-05-10T03:30:29.960Z,18.23
2018-05-10T03:31:30.000Z,18.28
2018-05-10T03:32:29.929Z,18.27
2018-05-10T03:33:30.020Z,18.23
2018-05-10T03:34:29.909Z,18.23
2018-05-10T03:35:29.899Z,18.17
2018-05-10T03:36:29.881Z,18.26
2018-05-10T03:37:29.881Z,18.30
2018-05-10T03:38:29.857Z,18.21
2018-05-10T03:39:29.895Z,18.20
2018-05-10T03:40:29.874Z,18.13
2018-05-10T03:41:29.817Z,18.11
2018-05-10T03:42:29.812Z,18.11
2018-05-10T03:43:29.799Z,18.18
2018-05-10T03:44:29.784Z,18.11
2018-05-10T03:45:29.768Z,18.12
2018-05-10T03:46:29.798Z,18.02
2018-05-10T03:47:29.744Z,18.12
2018-05-10T03:48:29.733Z,18.13
2018-05-10T03:49:29.724Z,18.12
2018-05-10T03:50:29.710Z,18.24
2018-05-10T03:51:29.704Z,18.18
2018-05-10T03:52:29.694Z,18.23
2018-05-10T03:53:29.679Z,18.20
2018-05-10T03:54:29.660Z,18.26
2018-05-10T03:55:29.648Z,18.18
2018-05-10T03:56:29.638Z,18.20
2018-05-10T03:57:29.636Z,18.18
2018-05-10T03:58:29.620Z,18.09
2018-05-10T03:59:29.599Z,18.18
2018-05-10T04:00:29.588Z,18.11
2018-05-10T04:01:29.580Z,18.01
2018-05-10T04:02:29.567Z,17.91
2018-05-10T04:03:29.556Z,17.96
2018-05-10T04:04:29.540Z,17.99
2018-05-10T04:05:29.529Z,18.03
2018-05-10T04:06:29.520Z,17.99
2018-05-10T04:07:29.504Z,18.06
2018-05-10T04:08:29.490Z,18.17
2018-05-10T04:09:29.479Z,18.12
2018-05-10T04:10:29.463Z,18.08
2018-05-10T04:11:29.458Z,18.18
2018-05-10T04:12:29.444Z,18.20
2018-05-10T04:13:29.431Z,18.11
2018-05-10T04:14:29.419Z,17.91
2018-05-10T04:15:29.438Z,17.99
2018-05-10T04:16:29.393Z,17.94
2018-05-10T04:17:29.388Z,17.84
2018-05-10T04:18:29.374Z,17.88
2018-05-10T04:19:29.360Z,17.91
2018-05-10T04:20:29.352Z,17.94
2018-05-10T04:21:29.344Z,17.87
2018-05-10T04:22:29.321Z,17.93
2018-05-10T04:23:29.312Z,17.90
2018-05-10T04:24:29.300Z,17.90
2018-05-10T04:25:29.291Z,17.94
2018-05-10T04:26:29.274Z,17.91
2018-05-10T04:27:29.262Z,17.87
2018-05-10T04:28:29.250Z,17.88
2018-05-10T04:29:29.242Z,17.87
2018-05-10T04:30:29.244Z,17.90
2018-05-10T04:31:29.211Z,17.90
2018-05-10T04:32:29.202Z,17.84
2018-05-10T04:33:29.194Z,17.87
2018-05-10T04:34:29.181Z,18.05
2018-05-10T04:35:29.163Z,17.91
2018-05-10T04:36:29.153Z,17.87
2018-05-10T04:37:29.140Z,17.86
2018-05-10T04:38:29.134Z,17.78
2018-05-10T04:39:29.121Z,17.78
2018-05-10T04:40:29.107Z,17.79
2018-05-10T04:41:29.091Z,17.84
2018-05-10T04:42:29.082Z,17.84
2018-05-10T04:43:29.066Z,17.97
2018-05-10T04:44:29.057Z,17.97
2018-05-10T04:45:29.051Z,18.03
2018-05-10T04:46:29.037Z,18.01
2018-05-10T04:47:29.022Z,18.08
2018-05-10T04:48:29.006Z,18.01
2018-05-10T04:49:28.990Z,18.11
2018-05-10T04:50:28.982Z,18.18
2018-05-10T04:51:28.972Z,18.18
2018-05-10T04:52:28.958Z,18.15
2018-05-10T04:53:28.948Z,18.21
2018-05-10T04:54:28.930Z,18.23
2018-05-10T04:55:28.920Z,18.11
2018-05-10T04:56:28.910Z,18.05
2018-05-10T04:57:28.905Z,18.02
2018-05-10T04:58:28.883Z,18.15
2018-05-10T04:59:28.870Z,18.11
2018-05-10T05:00:28.861Z,18.13
2018-05-10T05:01:28.853Z,18.13
2018-05-10T05:02:28.840Z,18.09
2018-05-10T05:03:28.876Z,18.06
2018-05-10T05:04:28.814Z,17.91
2018-05-10T05:05:28.810Z,18.02
2018-05-10T05:06:28.789Z,17.96
2018-05-10T05:07:28.774Z,17.90
2018-05-10T05:08:28.761Z,18.01
2018-05-10T05:09:28.753Z,17.90
2018-05-10T05:10:28.740Z,17.81
2018-05-10T05:11:28.727Z,17.76
2018-05-10T05:12:28.722Z,17.83
2018-05-10T05:13:28.701Z,17.83
2018-05-10T05:14:28.701Z,17.83
2018-05-10T05:15:28.681Z,17.84
2018-05-10T05:16:28.664Z,17.87
2018-05-10T05:17:28.654Z,17.86
2018-05-10T05:18:28.643Z,17.81
2018-05-10T05:19:28.630Z,17.83
2018-05-10T05:20:28.621Z,17.63
2018-05-10T05:21:28.608Z,17.62
2018-05-10T05:22:28.590Z,17.63
2018-05-10T05:23:28.580Z,17.63
2018-05-10T05:24:28.568Z,17.59
2018-05-10T05:25:28.560Z,17.71
2018-05-10T05:26:28.551Z,17.79
2018-05-10T05:27:28.529Z,17.65
2018-05-10T05:28:28.518Z,17.69
2018-05-10T05:29:28.508Z,17.59
2018-05-10T05:30:28.494Z,17.52
2018-05-10T05:31:28.480Z,17.50
2018-05-10T05:32:28.470Z,17.47
2018-05-10T05:33:28.461Z,17.34
2018-05-10T05:34:28.446Z,17.41
2018-05-10T05:35:28.529Z,17.30
2018-05-10T05:36:28.419Z,17.35
2018-05-10T05:37:28.412Z,17.17
2018-05-10T05:38:28.399Z,17.12
2018-05-10T05:39:28.386Z,16.91
2018-05-10T05:40:28.369Z,16.95
2018-05-10T05:41:28.384Z,17.01
2018-05-10T05:42:28.360Z,17.10
2018-05-10T05:43:28.524Z,17.06
2018-05-10T05:44:28.321Z,17.06
2018-05-10T05:45:28.310Z,17.09
2018-05-10T05:46:28.299Z,17.22
2018-05-10T05:47:28.289Z,17.19
2018-05-10T05:48:28.269Z,17.25
2018-05-10T05:49:28.310Z,17.25
2018-05-10T05:50:28.248Z,17.22
2018-05-10T05:51:28.337Z,17.30
2018-05-10T05:52:28.223Z,17.34
2018-05-10T05:53:28.215Z,17.37
2018-05-10T05:54:28.196Z,17.37
2018-05-10T05:55:28.193Z,17.31
2018-05-10T05:56:28.171Z,17.27
2018-05-10T05:57:28.159Z,17.27
2018-05-10T05:58:28.152Z,17.24
2018-05-10T05:59:28.133Z,17.07
2018-05-10T06:00:28.123Z,17.01
2018-05-10T06:01:28.110Z,17.01
2018-05-10T06:02:28.097Z,16.91
2018-05-10T06:03:28.087Z,16.82
2018-05-10T06:04:28.070Z,16.65
2018-05-10T06:05:28.059Z,16.70
2018-05-10T06:06:28.054Z,16.55
2018-05-10T06:07:28.039Z,16.61
2018-05-10T06:08:28.021Z,16.77
2018-05-10T06:09:28.009Z,16.65
2018-05-10T06:10:28.003Z,16.72
2018-05-10T06:11:27.983Z,16.64
2018-05-10T06:12:27.970Z,16.76
2018-05-10T06:13:27.960Z,16.80
2018-05-10T06:14:27.972Z,16.90
2018-05-10T06:15:27.949Z,16.94
2018-05-10T06:16:27.919Z,16.97
2018-05-10T06:17:27.908Z,17.09
2018-05-10T06:18:27.947Z,17.19
2018-05-10T06:19:27.880Z,17.14
2018-05-10T06:20:27.867Z,17.22
2018-05-10T06:21:27.858Z,17.35
2018-05-10T06:22:27.849Z,17.50
2018-05-10T06:23:27.830Z,17.46
2018-05-10T06:24:27.821Z,17.43
2018-05-10T06:25:27.809Z,17.39
2018-05-10T06:26:27.802Z,17.46
2018-05-10T06:27:27.787Z,17.50
2018-05-10T06:28:27.773Z,17.49
2018-05-10T06:29:27.754Z,17.52
2018-05-10T06:30:27.749Z,17.59
2018-05-10T06:31:27.741Z,17.63
2018-05-10T06:32:27.721Z,17.78
2018-05-10T06:33:27.710Z,18.01
2018-05-10T06:34:27.699Z,18.08
2018-05-10T06:35:27.684Z,18.15
2018-05-10T06:36:27.681Z,18.30
2018-05-10T06:37:27.659Z,18.15
2018-05-10T06:38:27.656Z,18.28
2018-05-10T06:39:27.641Z,18.23
2018-05-10T06:40:27.630Z,18.34
2018-05-10T06:41:27.623Z,18.45
2018-05-10T06:42:27.602Z,18.54
2018-05-10T06:43:27.591Z,18.66
2018-05-10T06:44:27.586Z,18.81
2018-05-10T06:45:27.570Z,18.71
2018-05-10T06:46:27.559Z,18.78
2018-05-10T06:47:27.545Z,18.89
2018-05-10T06:48:27.541Z,18.82
2018-05-10T06:49:27.527Z,18.75
2018-05-10T06:50:27.513Z,18.68
2018-05-10T06:51:27.505Z,18.67
2018-05-10T06:52:27.491Z,18.74
2018-05-10T06:53:27.477Z,18.79
2018-05-10T06:54:27.472Z,18.89
2018-05-10T06:55:27.468Z,18.94
2018-05-10T06:56:27.448Z,19.09
2018-05-10T06:57:27.453Z,19.16
2018-05-10T06:58:27.429Z,19.09
2018-05-10T06:59:27.419Z,19.08
2018-05-10T07:00:27.413Z,18.93
2018-05-10T07:01:27.391Z,18.43
2018-05-10T07:02:27.389Z,18.39
2018-05-10T07:03:27.455Z,18.51
2018-05-10T07:04:27.360Z,18.63
2018-05-10T07:05:27.352Z,18.64
2018-05-10T07:06:27.344Z,18.79
2018-05-10T07:07:27.329Z,18.89
2018-05-10T07:08:27.315Z,18.78
2018-05-10T07:09:27.479Z,18.94
2018-05-10T07:10:27.296Z,18.94
2018-05-10T07:11:27.292Z,19.01
2018-05-10T07:12:27.274Z,18.79
2018-05-10T07:13:27.273Z,18.85
2018-05-10T07:14:27.254Z,18.97
2018-05-10T07:15:27.246Z,19.07
2018-05-10T07:16:27.240Z,18.94
2018-05-10T07:17:27.223Z,18.98
2018-05-10T07:18:27.216Z,18.98
2018-05-10T07:19:27.200Z,18.93
2018-05-10T07:20:27.191Z,19.01
2018-05-10T07:21:27.181Z,18.88
2018-05-10T07:22:27.172Z,18.94
2018-05-10T07:23:27.190Z,19.13
2018-05-10T07:24:27.154Z,19.19
2018-05-10T07:25:27.250Z,19.24
2018-05-10T07:26:27.132Z,19.37
2018-05-10T07:27:27.120Z,19.24
2018-05-10T07:28:27.110Z,18.96
2018-05-10T07:29:27.099Z,18.75
2018-05-10T07:30:27.091Z,18.97
2018-05-10T07:31:27.080Z,19.19
2018-05-10T07:32:27.066Z,19.09
2018-05-10T07:33:27.059Z,18.97
2018-05-10T07:34:27.045Z,18.82
2018-05-10T07:35:27.037Z,18.81
2018-05-10T07:36:27.038Z,18.83
2018-05-10T07:37:27.023Z,18.83
2018-05-10T07:38:27.006Z,18.71
2018-05-10T07:39:26.997Z,18.57
2018-05-10T07:40:26.988Z,18.74
2018-05-10T07:41:26.984Z,18.96
2018-05-10T07:42:26.962Z,18.96
2018-05-10T07:43:26.959Z,18.93
2018-05-10T07:44:26.943Z,19.04
2018-05-10T07:45:26.935Z,18.93
2018-05-10T07:46:26.921Z,18.96
2018-05-10T07:47:26.990Z,19.01
2018-05-10T07:48:26.903Z,18.70
2018-05-10T07:49:26.897Z,18.68
2018-05-10T07:50:26.879Z,18.83
2018-05-10T07:51:26.868Z,18.88
2018-05-10T07:52:26.859Z,18.97
2018-05-10T07:53:26.851Z,19.32
2018-05-10T07:54:26.851Z,19.52
2018-05-10T07:55:26.933Z,19.47
2018-05-10T07:56:26.818Z,19.44
2018-05-10T07:57:26.878Z,19.32
2018-05-10T07:58:26.795Z,19.54
2018-05-10T07:59:26.842Z,19.52
2018-05-10T08:00:26.778Z,19.87
2018-05-10T08:01:26.777Z,19.81
2018-05-10T08:02:26.756Z,20.15
2018-05-10T08:03:26.754Z,20.18
2018-05-10T08:04:26.738Z,20.19
2018-05-10T08:05:26.742Z,19.97
2018-05-10T08:06:26.721Z,20.09
2018-05-10T08:07:26.710Z,19.97
2018-05-10T08:08:26.706Z,20.08
2018-05-10T08:09:26.694Z,20.04
2018-05-10T08:10:26.687Z,20.12
2018-05-10T08:11:26.673Z,20.14
2018-05-10T08:12:26.664Z,19.94
2018-05-10T08:13:26.662Z,19.81
2018-05-10T08:14:26.650Z,19.63
2018-05-10T08:15:26.635Z,19.72
2018-05-10T08:16:26.640Z,19.82
2018-05-10T08:17:26.616Z,19.89
2018-05-10T08:18:26.611Z,19.94
2018-05-10T08:19:26.601Z,20.14
2018-05-10T08:20:26.587Z,20.04
2018-05-10T08:21:26.581Z,20.14
2018-05-10T08:22:26.572Z,20.15
2018-05-10T08:23:26.561Z,20.22
2018-05-10T08:24:26.548Z,20.19
2018-05-10T08:25:26.543Z,20.25
2018-05-10T08:26:26.531Z,20.02
2018-05-10T08:27:26.522Z,20.11
2018-05-10T08:28:26.512Z,20.34
2018-05-10T08:29:26.511Z,20.36
2018-05-10T08:30:26.499Z,20.52
2018-05-10T08:31:26.485Z,20.65
2018-05-10T08:32:26.476Z,20.68
2018-05-10T08:33:26.465Z,20.79
2018-05-10T08:34:26.469Z,20.74
2018-05-10T08:35:26.448Z,20.92
2018-05-10T08:36:26.513Z,20.79
2018-05-10T08:37:26.434Z,20.68
2018-05-10T08:38:26.427Z,20.85
2018-05-10T08:39:26.409Z,20.90
2018-05-10T08:40:26.401Z,20.89
2018-05-10T08:41:26.404Z,20.77
2018-05-10T08:42:26.382Z,20.95
2018-05-10T08:43:26.374Z,20.92
2018-05-10T08:44:26.371Z,21.35
2018-05-10T08:45:26.361Z,21.80
2018-05-10T08:46:26.348Z,22.31
2018-05-10T08:47:26.353Z,22.71
2018-05-10T08:48:26.333Z,22.86
2018-05-10T08:49:26.326Z,23.51
2018-05-10T08:50:26.319Z,22.73
2018-05-10T08:51:26.322Z,22.81
2018-05-10T08:52:26.303Z,23.17
2018-05-10T08:53:26.299Z,22.64
2018-05-10T08:54:26.291Z,22.16
2018-05-10T08:55:26.284Z,21.71
2018-05-10T08:56:26.278Z,21.58
2018-05-10T08:57:26.272Z,21.73
2018-05-10T08:58:26.261Z,21.93
2018-05-10T08:59:26.265Z,22.28
2018-05-10T09:00:26.251Z,22.52
2018-05-10T09:01:26.243Z,22.64
2018-05-10T09:02:26.233Z,22.73
2018-05-10T09:03:26.234Z,23.03
2018-05-10T09:04:26.231Z,23.84
2018-05-10T09:05:26.210Z,24.16
2018-05-10T09:06:26.214Z,24.25
2018-05-10T09:07:26.201Z,24.03
2018-05-10T09:08:26.191Z,23.89
2018-05-10T09:09:26.185Z,23.64
2018-05-10T09:10:26.180Z,23.97
2018-05-10T09:11:26.173Z,24.03
2018-05-10T09:12:26.171Z,23.74
2018-05-10T09:13:26.164Z,23.51
2018-05-10T09:14:26.164Z,23.60
2018-05-10T09:15:26.151Z,22.98
2018-05-10T09:16:26.148Z,23.34
2018-05-10T09:17:26.144Z,23.48
2018-05-10T09:18:26.132Z,23.91
2018-05-10T09:19:26.130Z,24.03
2018-05-10T09:20:26.131Z,24.16
2018-05-10T09:21:26.110Z,24.44
2018-05-10T09:22:26.118Z,24.34
2018-05-10T09:23:26.103Z,24.55
2018-05-10T09:24:26.107Z,24.52
2018-05-10T09:25:26.140Z,24.34
2018-05-10T09:26:26.083Z,23.63
2018-05-10T09:27:26.129Z,23.56
2018-05-10T09:28:26.082Z,23.56
2018-05-10T09:29:26.094Z,23.55
2018-05-10T09:30:26.063Z,23.34
2018-05-10T09:31:26.048Z,22.93
2018-05-10T09:32:26.041Z,22.71
2018-05-10T09:33:26.047Z,22.19
2018-05-10T09:34:26.040Z,21.93
2018-05-10T09:35:26.022Z,21.85
2018-05-10T09:36:26.012Z,21.66
2018-05-10T09:37:26.010Z,21.43
2018-05-10T09:38:25.998Z,21.18
2018-05-10T09:39:26.134Z,21.05
2018-05-10T09:40:25.982Z,20.89
2018-05-10T09:41:25.975Z,20.68
2018-05-10T09:42:25.975Z,20.74
2018-05-10T09:43:25.962Z,20.65
2018-05-10T09:44:25.951Z,20.50
2018-05-10T09:45:25.939Z,20.30
2018-05-10T09:46:25.930Z,20.25
2018-05-10T09:47:25.928Z,20.37
2018-05-10T09:48:25.915Z,20.25
2018-05-10T09:49:25.916Z,20.32
2018-05-10T09:50:25.901Z,20.23
2018-05-10T09:51:25.890Z,20.22
2018-05-10T09:52:25.879Z,20.19
2018-05-10T09:53:25.870Z,20.02
2018-05-10T09:54:25.865Z,19.78
2018-05-10T09:55:25.862Z,19.64
2018-05-10T09:56:25.851Z,19.67
2018-05-10T09:57:25.831Z,19.49
2018-05-10T09:58:25.826Z,19.44
2018-05-10T09:59:25.809Z,19.49
2018-05-10T10:00:25.805Z,19.53
2018-05-10T10:01:25.792Z,19.53
2018-05-10T10:02:25.850Z,19.67
2018-05-10T10:03:25.780Z,19.68
2018-05-10T10:04:25.772Z,19.52
2018-05-10T10:05:25.764Z,19.49
2018-05-10T10:06:25.912Z,19.50
2018-05-10T10:07:25.733Z,19.49
2018-05-10T10:08:25.820Z,19.59
2018-05-10T10:09:25.713Z,19.50
2018-05-10T10:10:25.801Z,19.47
2018-05-10T10:11:25.695Z,19.52
2018-05-10T10:12:25.691Z,19.53
2018-05-10T10:13:25.671Z,19.39
2018-05-10T10:14:25.761Z,19.38
2018-05-10T10:15:25.652Z,19.37
2018-05-10T10:16:25.643Z,19.17
2018-05-10T10:17:25.641Z,19.13
2018-05-10T10:18:25.633Z,19.19
2018-05-10T10:19:25.620Z,19.37
2018-05-10T10:20:25.603Z,19.50
2018-05-10T10:21:25.584Z,19.53
2018-05-10T10:22:25.578Z,19.50
2018-05-10T10:23:25.569Z,19.53
2018-05-10T10:24:25.555Z,19.49
2018-05-10T10:25:25.551Z,19.44
2018-05-10T10:26:25.536Z,19.30
2018-05-10T10:27:25.546Z,18.79
2018-05-10T10:28:25.521Z,18.64
2018-05-10T10:29:25.500Z,18.74
2018-05-10T10:30:25.489Z,18.61
2018-05-10T10:31:25.482Z,18.74
2018-05-10T10:32:25.483Z,18.75
2018-05-10T10:33:25.457Z,18.81
2018-05-10T10:34:25.516Z,18.86
2018-05-10T10:35:25.438Z,18.94
2018-05-10T10:36:25.431Z,18.94
2018-05-10T10:37:25.422Z,19.17
2018-05-10T10:38:25.414Z,18.79
2018-05-10T10:39:25.444Z,18.82
2018-05-10T10:40:25.383Z,18.89
2018-05-10T10:41:25.369Z,18.81
2018-05-10T10:42:25.369Z,18.75
2018-05-10T10:43:25.350Z,18.74
2018-05-10T10:44:25.358Z,18.56
2018-05-10T10:45:25.368Z,18.45
2018-05-10T10:46:25.322Z,18.11
2018-05-10T10:47:25.316Z,18.02
2018-05-10T10:48:25.309Z,18.15
2018-05-10T10:49:25.290Z,18.12
2018-05-10T10:50:25.273Z,18.05
2018-05-10T10:51:25.266Z,18.02
2018-05-10T10:52:25.250Z,18.05
2018-05-10T10:53:25.245Z,18.12
2018-05-10T10:54:25.230Z,18.03
2018-05-10T10:55:25.213Z,18.05
2018-05-10T10:56:25.212Z,18.12
2018-05-10T10:57:25.215Z,18.09
2018-05-10T10:58:25.199Z,17.84
2018-05-10T10:59:25.176Z,17.83
2018-05-10T11:00:25.162Z,17.81
2018-05-10T11:01:25.152Z,17.83
2018-05-10T11:02:25.142Z,17.90
2018-05-10T11:03:25.128Z,17.99
2018-05-10T11:04:25.121Z,18.06
2018-05-10T11:05:25.102Z,18.11
2018-05-10T11:06:25.089Z,18.13
2018-05-10T11:07:25.074Z,18.01
2018-05-10T11:08:25.073Z,18.02
2018-05-10T11:09:25.070Z,18.08
2018-05-10T11:10:25.051Z,18.05
2018-05-10T11:11:25.041Z,18.15
2018-05-10T11:12:25.023Z,17.99
2018-05-10T11:13:25.009Z,18.06
2018-05-10T11:14:25.001Z,18.09
2018-05-10T11:15:24.987Z,18.03
2018-05-10T11:16:24.971Z,17.96
2018-05-10T11:17:24.962Z,18.06
2018-05-10T11:18:24.956Z,18.11
2018-05-10T11:19:24.942Z,18.15
2018-05-10T11:20:24.933Z,18.02
2018-05-10T11:21:24.921Z,17.84
2018-05-10T11:22:24.900Z,17.78
2018-05-10T11:23:24.899Z,17.76
2018-05-10T11:24:24.878Z,17.83
2018-05-10T11:25:24.921Z,17.81
2018-05-10T11:26:24.866Z,17.73
2018-05-10T11:27:24.859Z,17.68
2018-05-10T11:28:24.831Z,17.71
2018-05-10T11:29:24.824Z,17.72
2018-05-10T11:30:24.828Z,17.54
2018-05-10T11:31:24.801Z,17.49
2018-05-10T11:32:24.781Z,17.38
2018-05-10T11:33:24.770Z,17.37
2018-05-10T11:34:24.761Z,17.34
2018-05-10T11:35:24.749Z,17.25
2018-05-10T11:36:24.735Z,17.07
2018-05-10T11:37:24.731Z,17.19
2018-05-10T11:38:24.712Z,16.99
2018-05-10T11:39:24.701Z,16.98
2018-05-10T11:40:24.693Z,16.99
2018-05-10T11:41:24.685Z,17.07
2018-05-10T11:42:24.701Z,17.27
2018-05-10T11:43:24.649Z,17.24
2018-05-10T11:44:24.642Z,17.28
2018-05-10T11:45:24.629Z,17.45
2018-05-10T11:46:24.621Z,17.28
2018-05-10T11:47:24.602Z,17.24
2018-05-10T11:48:24.592Z,17.17
2018-05-10T11:49:24.584Z,17.30
2018-05-10T11:50:24.566Z,17.28
2018-05-10T11:51:24.557Z,17.25
2018-05-10T11:52:24.553Z,17.39
2018-05-10T11:53:24.541Z,17.34
2018-05-10T11:54:24.529Z,17.25
2018-05-10T11:55:24.513Z,17.27
2018-05-10T11:56:24.492Z,17.28
2018-05-10T11:57:24.531Z,17.27
2018-05-10T11:58:24.468Z,17.32
2018-05-10T11:59:24.459Z,17.12
2018-05-10T12:00:24.468Z,17.02
2018-05-10T12:01:24.436Z,17.19
2018-05-10T12:02:24.432Z,17.25
2018-05-10T12:03:24.410Z,17.28
2018-05-10T12:04:24.399Z,17.27
2018-05-10T12:05:24.397Z,17.09
2018-05-10T12:06:24.377Z,16.87
2018-05-10T12:07:24.366Z,16.83
2018-05-10T12:08:24.393Z,16.97
2018-05-10T12:09:24.342Z,16.87
2018-05-10T12:10:24.420Z,16.91
2018-05-10T12:11:24.311Z,16.88
2018-05-10T12:12:24.404Z,16.94
2018-05-10T12:13:24.296Z,16.99
2018-05-10T12:14:24.330Z,17.12
2018-05-10T12:15:24.274Z,17.07
2018-05-10T12:16:24.250Z,17.12
2018-05-10T12:17:24.249Z,17.16
2018-05-10T12:18:24.334Z,17.30
2018-05-10T12:19:24.215Z,17.41
2018-05-10T12:20:24.246Z,17.52
2018-05-10T12:21:24.185Z,17.50
2018-05-10T12:22:24.175Z,17.45
2018-05-10T12:23:24.161Z,17.49
2018-05-10T12:24:24.150Z,17.41
2018-05-10T12:25:24.145Z,17.30
2018-05-10T12:26:24.124Z,17.34
2018-05-10T12:27:24.113Z,17.39
2018-05-10T12:28:24.113Z,17.37
2018-05-10T12:29:24.090Z,17.37
2018-05-10T12:30:24.176Z,17.38
2018-05-10T12:31:24.061Z,17.35
2018-05-10T12:32:24.055Z,17.32
2018-05-10T12:33:24.039Z,17.38
2018-05-10T12:34:24.029Z,17.35
2018-05-10T12:35:24.022Z,17.30
2018-05-10T12:36:23.999Z,17.38
2018-05-10T12:37:23.992Z,17.25
2018-05-10T12:38:23.981Z,17.07
2018-05-10T12:39:23.963Z,17.01
2018-05-10T12:40:23.955Z,17.04
2018-05-10T12:41:23.943Z,17.04
2018-05-10T12:42:23.934Z,17.04
2018-05-10T12:43:23.926Z,16.95
2018-05-10T12:44:23.905Z,16.99
2018-05-10T12:45:23.891Z,16.98
2018-05-10T12:46:23.877Z,16.90
2018-05-10T12:47:23.873Z,16.83
2018-05-10T12:48:23.851Z,16.84
2018-05-10T12:49:23.843Z,16.74
2018-05-10T12:50:23.841Z,16.76
2018-05-10T12:51:23.815Z,16.62
2018-05-10T12:52:23.802Z,16.59